Time;durP1;ratioP1;P1;durP2;ratioP2;P2;SDS_P1;SDS_P2;PMS_P1;PMS_P2;Temp;Humidity;BMP_temperature;BMP_pressure;BME280_temperature;BME280_humidity;BME280_pressure;Samples;Min_cycle;Max_cycle;Signal;HPM_P1;HPM_P2
2022/11/20 00:02:14;;;;;;;2.40;2.20;;;;;;;;;;5067044;28;20044;-59
2022/11/20 00:04:40;;;;;;;3.60;3.25;;;;;;;;;;5067078;28;20059;-58
2022/11/20 00:07:06;;;;;;;3.35;3.05;;;;;;;;;;5066620;28;20132;-59
2022/11/20 00:09:32;;;;;;;3.88;3.05;;;;;;;;;;5067073;28;20048;-58
2022/11/20 00:11:58;;;;;;;4.28;3.50;;;;;;;;;;5067723;28;20045;-59
2022/11/20 00:14:24;;;;;;;4.53;3.10;;;;;;;;;;5066075;28;20535;-58
2022/11/20 00:16:50;;;;;;;4.38;3.10;;;;;;;;;;5066991;28;20052;-58
2022/11/20 00:19:16;;;;;;;3.25;2.95;;;;;;;;;;5066487;28;20414;-58
2022/11/20 00:21:42;;;;;;;3.75;3.35;;;;;;;;;;5066808;28;20032;-58
2022/11/20 00:24:10;;;;;;;3.80;3.40;;;;;;;;;;5066728;28;20095;-58
2022/11/20 00:26:36;;;;;;;4.47;2.90;;;;;;;;;;5066355;28;20522;-58
2022/11/20 00:29:03;;;;;;;3.63;3.05;;;;;;;;;;5066707;28;20051;-58
2022/11/20 00:31:29;;;;;;;4.28;3.28;;;;;;;;;;5067093;28;20071;-59
2022/11/20 00:33:55;;;;;;;3.33;2.83;;;;;;;;;;5067357;28;20053;-59
2022/11/20 00:36:22;;;;;;;3.83;3.05;;;;;;;;;;5065912;28;20052;-59
2022/11/20 00:38:52;;;;;;;3.17;2.88;;;;;;;;;;5067123;28;20391;-58
2022/11/20 00:41:18;;;;;;;4.53;3.05;;;;;;;;;;5066747;28;20040;-59
2022/11/20 00:43:44;;;;;;;4.28;3.15;;;;;;;;;;5066167;28;20056;-61
2022/11/20 00:46:12;;;;;;;4.05;3.70;;;;;;;;;;5066819;28;20190;-57
2022/11/20 00:48:38;;;;;;;5.20;4.10;;;;;;;;;;5066196;28;20037;-59
2022/11/20 00:51:05;;;;;;;5.20;4.18;;;;;;;;;;5066816;28;20460;-58
2022/11/20 00:53:31;;;;;;;5.97;4.55;;;;;;;;;;5066621;28;20048;-58
2022/11/20 00:55:58;;;;;;;4.80;3.63;;;;;;;;;;5064626;28;20045;-59
2022/11/20 00:58:25;;;;;;;4.63;3.80;;;;;;;;;;5066036;28;20037;-58
2022/11/20 01:00:51;;;;;;;4.53;3.90;;;;;;;;;;5066857;28;20079;-58
2022/11/20 01:03:18;;;;;;;3.88;3.47;;;;;;;;;;5065200;28;20336;-58
2022/11/20 01:05:44;;;;;;;4.15;3.63;;;;;;;;;;5066641;28;20044;-58
2022/11/20 01:08:10;;;;;;;4.55;3.55;;;;;;;;;;5066291;28;20044;-58
2022/11/20 01:10:36;;;;;;;5.93;4.00;;;;;;;;;;5066248;28;20162;-58
2022/11/20 01:15:47;;;;;;;4.40;3.83;;;;;;;;;;5067103;28;20077;-59
2022/11/20 01:18:13;;;;;;;4.05;3.47;;;;;;;;;;5065543;28;20379;-59
2022/11/20 01:20:39;;;;;;;4.53;3.85;;;;;;;;;;5066469;28;20483;-57
2022/11/20 01:23:05;;;;;;;3.83;3.25;;;;;;;;;;5066216;28;20097;-57
2022/11/20 01:25:31;;;;;;;4.20;3.78;;;;;;;;;;5066061;28;20056;-58
2022/11/20 01:27:57;;;;;;;3.65;3.17;;;;;;;;;;5065985;28;20045;-58
2022/11/20 01:30:23;;;;;;;3.97;3.35;;;;;;;;;;5066039;28;20044;-58
2022/11/20 01:32:49;;;;;;;3.78;2.83;;;;;;;;;;5065601;28;20033;-58
2022/11/20 01:35:15;;;;;;;4.00;3.20;;;;;;;;;;5065789;28;20075;-58
2022/11/20 01:37:41;;;;;;;4.20;3.28;;;;;;;;;;5065074;28;20043;-58
2022/11/20 01:40:07;;;;;;;4.10;3.45;;;;;;;;;;5063904;28;20049;-58
2022/11/20 01:45:37;;;;;;;3.92;3.15;;;;;;;;;;5064440;28;20044;-58
2022/11/20 01:48:03;;;;;;;3.83;3.42;;;;;;;;;;5062942;28;20098;-58
2022/11/20 01:50:29;;;;;;;4.43;3.45;;;;;;;;;;5065885;28;20040;-58
2022/11/20 01:52:58;;;;;;;4.90;3.78;;;;;;;;;;5065043;28;20051;-59
2022/11/20 01:55:26;;;;;;;4.53;4.05;;;;;;;;;;5065271;28;20055;-59
2022/11/20 01:57:53;;;;;;;3.95;3.55;;;;;;;;;;5066238;28;20193;-59
2022/11/20 02:00:19;;;;;;;5.22;4.18;;;;;;;;;;5064161;28;20060;-58
2022/11/20 02:02:49;;;;;;;5.53;4.40;;;;;;;;;;5065902;28;20048;-58
2022/11/20 02:05:18;;;;;;;4.32;3.92;;;;;;;;;;5063419;28;20071;-59
2022/11/20 02:07:44;;;;;;;6.82;4.25;;;;;;;;;;5064612;28;20526;-59
2022/11/20 02:10:10;;;;;;;5.00;4.18;;;;;;;;;;5064651;28;20139;-58
2022/11/20 02:15:21;;;;;;;6.60;4.57;;;;;;;;;;5063966;28;20056;-58
2022/11/20 02:17:47;;;;;;;4.25;3.70;;;;;;;;;;5067062;28;20176;-58
2022/11/20 02:20:13;;;;;;;5.13;4.22;;;;;;;;;;5065273;28;20512;-58
2022/11/20 02:22:45;;;;;;;5.13;4.00;;;;;;;;;;5066660;28;20564;-60
2022/11/20 02:25:12;;;;;;;4.00;3.38;;;;;;;;;;5064590;28;20055;-58
2022/11/20 02:27:38;;;;;;;4.40;3.40;;;;;;;;;;5064049;28;20040;-58
2022/11/20 02:30:07;;;;;;;6.20;4.30;;;;;;;;;;5065195;28;20090;-58
2022/11/20 02:32:35;;;;;;;3.83;3.42;;;;;;;;;;5064469;28;20111;-58
2022/11/20 02:35:08;;;;;;;5.10;3.70;;;;;;;;;;5062140;28;20135;-58
2022/11/20 02:37:36;;;;;;;3.17;2.88;;;;;;;;;;5064637;28;20040;-59
2022/11/20 02:40:02;;;;;;;3.67;3.30;;;;;;;;;;5064311;28;20044;-59
2022/11/20 02:42:28;;;;;;;3.75;3.05;;;;;;;;;;5063881;28;20044;-58
2022/11/20 02:44:54;;;;;;;4.85;3.65;;;;;;;;;;5064498;28;20079;-59
2022/11/20 02:47:20;;;;;;;5.65;4.53;;;;;;;;;;5064571;28;20049;-58
2022/11/20 02:49:46;;;;;;;4.88;4.30;;;;;;;;;;5064139;28;20503;-59
2022/11/20 02:52:12;;;;;;;5.35;4.22;;;;;;;;;;5063923;28;20051;-58
2022/11/20 02:54:38;;;;;;;5.13;4.25;;;;;;;;;;5064334;28;20045;-59
2022/11/20 02:57:04;;;;;;;5.10;4.13;;;;;;;;;;5063656;28;20128;-59
2022/11/20 02:59:30;;;;;;;6.05;4.35;;;;;;;;;;5063702;28;20419;-59
2022/11/20 03:01:56;;;;;;;6.07;3.92;;;;;;;;;;5064812;28;20041;-59
2022/11/20 03:04:22;;;;;;;4.90;3.85;;;;;;;;;;5063304;28;20123;-59
2022/11/20 03:06:48;;;;;;;4.07;3.42;;;;;;;;;;5064818;28;20034;-59
2022/11/20 03:09:14;;;;;;;5.47;4.10;;;;;;;;;;5063077;28;20391;-58
2022/11/20 03:11:40;;;;;;;4.60;4.10;;;;;;;;;;5064122;28;20048;-57
2022/11/20 03:14:06;;;;;;;6.35;5.20;;;;;;;;;;5064413;28;19920;-57
2022/11/20 03:16:32;;;;;;;7.85;5.50;;;;;;;;;;5063274;28;20095;-58
2022/11/20 03:18:58;;;;;;;8.05;5.53;;;;;;;;;;5064025;28;20079;-58
2022/11/20 03:21:24;;;;;;;8.40;5.05;;;;;;;;;;5063797;28;20070;-58
2022/11/20 03:23:50;;;;;;;6.75;5.53;;;;;;;;;;5063939;28;20487;-57
2022/11/20 03:26:18;;;;;;;7.22;5.25;;;;;;;;;;5063797;28;20471;-58
2022/11/20 03:28:49;;;;;;;5.05;3.80;;;;;;;;;;5063880;28;20499;-58
2022/11/20 03:31:16;;;;;;;4.20;3.80;;;;;;;;;;5063010;28;20495;-57
2022/11/20 03:33:42;;;;;;;4.05;3.30;;;;;;;;;;5064057;28;20067;-57
2022/11/20 03:36:08;;;;;;;;;;;;;;;;;;5064128;28;19974;-58
2022/11/20 03:38:34;;;;;;;3.97;3.38;;;;;;;;;;5062983;28;19924;-58
2022/11/20 03:41:01;;;;;;;4.20;3.40;;;;;;;;;;5064524;28;20059;-58
2022/11/20 03:43:28;;;;;;;4.00;3.15;;;;;;;;;;5063380;28;20484;-58
2022/11/20 03:45:54;;;;;;;5.10;4.15;;;;;;;;;;5063681;28;20114;-58
2022/11/20 03:48:20;;;;;;;5.20;4.40;;;;;;;;;;5064452;28;20541;-58
2022/11/20 03:50:47;;;;;;;;;;;;;;;;;;5064270;28;19951;-58
2022/11/20 03:53:13;;;;;;;;;;;;;;;;;;5063076;28;19927;-58
2022/11/20 03:55:39;;;;;;;;;;;;;;;;;;5064246;28;19929;-57
2022/11/20 03:58:05;;;;;;;;;;;;;;;;;;5064502;28;20189;-57
2022/11/20 04:00:31;;;;;;;;;;;;;;;;;;5063443;28;19924;-57
2022/11/20 04:02:56;;;;;;;;;;;;;;;;;;5063614;28;20291;-57
2022/11/20 04:05:22;;;;;;;;;;;;;;;;;;5095484;28;19926;-57
2022/11/20 04:07:48;;;;;;;;;;;;;;;;;;5063928;28;19928;-57
2022/11/20 04:10:14;;;;;;;;;;;;;;;;;;5063484;28;19956;-57
2022/11/20 04:12:40;;;;;;;4.35;3.70;;;;;;;;;;5063567;28;19924;-57
2022/11/20 04:15:06;;;;;;;;;;;;;;;;;;5064132;28;20046;-57
2022/11/20 04:17:32;;;;;;;;;;;;;;;;;;5063999;28;20487;-57
2022/11/20 04:19:58;;;;;;;;;;;;;;;;;;5064195;28;19921;-57
2022/11/20 04:22:24;;;;;;;;;;;;;;;;;;5063611;28;19946;-57
2022/11/20 04:24:50;;;;;;;;;;;;;;;;;;5064150;28;20360;-57
2022/11/20 04:27:15;;;;;;;;;;;;;;;;;;5063562;28;19925;-57
2022/11/20 04:29:41;;;;;;;;;;;;;;;;;;5064350;28;19924;-57
2022/11/20 04:32:07;;;;;;;;;;;;;;;;;;5068101;28;19965;-57
2022/11/20 04:34:33;;;;;;;;;;;;;;;;;;5066963;28;19924;-58
2022/11/20 04:36:59;;;;;;;;;;;;;;;;;;5068283;28;19962;-58
2022/11/20 04:39:25;;;;;;;;;;;;;;;;;;5067308;28;19928;-58
2022/11/20 04:42:28;;;;;;;;;;;;;;;;;;5067279;28;19921;-57
2022/11/20 04:44:37;;;;;;;;;;;;;;;;;;5067550;28;19938;-58
2022/11/20 04:47:03;;;;;;;;;;;;;;;;;;5069534;28;19924;-58
2022/11/20 04:49:28;;;;;;;;;;;;;;;;;;5067675;28;20178;-58
2022/11/20 04:51:54;;;;;;;;;;;;;;;;;;5067560;28;20263;-57
2022/11/20 04:54:20;;;;;;;;;;;;;;;;;;5067306;28;19934;-57
2022/11/20 04:56:46;;;;;;;;;;;;;;;;;;5066073;28;19970;-57
2022/11/20 04:59:12;;;;;;;;;;;;;;;;;;5067332;28;20431;-57
2022/11/20 05:01:38;;;;;;;3.42;2.85;;;;;;;;;;5066788;28;19926;-57
2022/11/20 05:04:05;;;;;;;4.20;3.50;;;;;;;;;;5066609;28;20182;-58
2022/11/20 05:06:31;;;;;;;4.35;3.88;;;;;;;;;;5066859;28;20063;-57
2022/11/20 05:08:57;;;;;;;4.13;3.40;;;;;;;;;;5065979;28;20063;-58
2022/11/20 05:11:23;;;;;;;4.78;3.38;;;;;;;;;;5066200;28;20063;-58
2022/11/20 05:13:50;;;;;;;3.75;3.15;;;;;;;;;;5067264;28;20051;-57
2022/11/20 05:16:17;;;;;;;3.88;3.45;;;;;;;;;;5065677;28;20040;-57
2022/11/20 05:18:44;;;;;;;3.53;3.20;;;;;;;;;;5066260;28;20047;-58
2022/11/20 05:21:10;;;;;;;;;;;;;;;;;;5066297;28;20048;-57
2022/11/20 05:23:35;;;;;;;;;;;;;;;;;;5066668;28;19924;-58
2022/11/20 05:26:01;;;;;;;;;;;;;;;;;;5066735;28;19921;-57
2022/11/20 05:28:27;;;;;;;;;;;;;;;;;;5066872;28;19935;-58
2022/11/20 05:30:53;;;;;;;;;;;;;;;;;;5066146;28;19924;-57
2022/11/20 05:33:19;;;;;;;;;;;;;;;;;;5066594;28;19968;-57
2022/11/20 05:35:45;;;;;;;;;;;;;;;;;;5098276;27;19924;-57
2022/11/20 05:38:11;;;;;;;;;;;;;;;;;;5065374;28;19931;-58
2022/11/20 05:40:37;;;;;;;;;;;;;;;;;;5066746;28;19990;-57
2022/11/20 05:43:03;;;;;;;;;;;;;;;;;;5065844;28;20010;-58
2022/11/20 05:45:29;;;;;;;;;;;;;;;;;;5065715;28;19939;-58
2022/11/20 05:47:54;;;;;;;;;;;;;;;;;;5066178;28;19951;-58
2022/11/20 05:50:20;;;;;;;;;;;;;;;;;;5065763;28;20379;-58
2022/11/20 05:52:46;;;;;;;;;;;;;;;;;;5065022;28;19920;-58
2022/11/20 05:55:12;;;;;;;;;;;;;;;;;;5065863;28;20003;-57
2022/11/20 05:57:38;;;;;;;;;;;;;;;;;;5066133;28;19927;-57
2022/11/20 06:00:04;;;;;;;;;;;;;;;;;;5064862;28;19921;-58
2022/11/20 06:02:30;;;;;;;2.90;2.60;;;;;;;;;;5065619;28;20062;-57
2022/11/20 06:04:56;;;;;;;;;;;;;;;;;;5066306;28;20082;-57
2022/11/20 06:07:22;;;;;;;;;;;;;;;;;;5065463;28;19926;-57
2022/11/20 06:09:48;;;;;;;;;;;;;;;;;;5066486;28;19956;-58
2022/11/20 06:12:14;;;;;;;;;;;;;;;;;;5064766;28;19997;-57
2022/11/20 06:14:39;;;;;;;;;;;;;;;;;;5065684;28;20417;-57
2022/11/20 06:17:05;;;;;;;;;;;;;;;;;;5065776;28;20187;-58
2022/11/20 06:19:31;;;;;;;;;;;;;;;;;;5064759;28;19920;-58
2022/11/20 06:21:57;;;;;;;;;;;;;;;;;;5064194;28;19925;-57
2022/11/20 06:24:25;;;;;;;;;;;;;;;;;;5064757;28;19924;-58
2022/11/20 06:26:51;;;;;;;;;;;;;;;;;;5063709;28;19932;-57
2022/11/20 06:29:17;;;;;;;;;;;;;;;;;;5064344;28;19930;-57
2022/11/20 06:31:42;;;;;;;;;;;;;;;;;;5065708;28;20425;-57
2022/11/20 06:34:08;;;;;;;;;;;;;;;;;;5062715;28;19920;-57
2022/11/20 06:36:34;;;;;;;;;;;;;;;;;;5065429;28;19920;-57
2022/11/20 06:39:00;;;;;;;;;;;;;;;;;;5066014;28;19939;-57
2022/11/20 06:41:27;;;;;;;;;;;;;;;;;;5096787;28;19920;-58
2022/11/20 06:43:53;;;;;;;;;;;;;;;;;;5065568;28;19924;-58
2022/11/20 06:46:19;;;;;;;;;;;;;;;;;;5065040;28;19927;-57
2022/11/20 06:48:45;;;;;;;;;;;;;;;;;;5064466;28;19924;-57
2022/11/20 06:51:11;;;;;;;;;;;;;;;;;;5065034;28;19928;-57
2022/11/20 06:53:37;;;;;;;;;;;;;;;;;;5065202;28;19959;-58
2022/11/20 06:56:03;;;;;;;;;;;;;;;;;;5064718;28;20287;-57
2022/11/20 06:58:29;;;;;;;;;;;;;;;;;;5065175;28;20015;-57
2022/11/20 07:00:55;;;;;;;;;;;;;;;;;;5065161;28;19924;-57
2022/11/20 07:03:20;;;;;;;;;;;;;;;;;;5064284;28;19928;-57
2022/11/20 07:05:46;;;;;;;;;;;;;;;;;;5065426;28;19920;-57
2022/11/20 07:08:12;;;;;;;;;;;;;;;;;;5064025;28;19963;-57
2022/11/20 07:10:38;;;;;;;;;;;;;;;;;;5063930;28;19963;-58
2022/11/20 07:13:04;;;;;;;;;;;;;;;;;;5068420;28;20459;-57
2022/11/20 07:15:30;;;;;;;;;;;;;;;;;;5064447;28;19932;-57
2022/11/20 07:17:56;;;;;;;;;;;;;;;;;;5063663;28;20306;-58
2022/11/20 07:20:22;;;;;;;;;;;;;;;;;;5064904;28;19931;-58
2022/11/20 07:22:48;;;;;;;;;;;;;;;;;;5064476;28;19924;-58
2022/11/20 07:25:14;;;;;;;;;;;;;;;;;;5064300;28;19924;-57
2022/11/20 07:27:40;;;;;;;;;;;;;;;;;;5064581;28;19927;-57
2022/11/20 07:30:06;;;;;;;;;;;;;;;;;;5063078;28;20355;-57
2022/11/20 07:32:32;;;;;;;;;;;;;;;;;;5065988;28;19931;-58
2022/11/20 07:34:58;;;;;;;;;;;;;;;;;;5065607;28;20160;-57
2022/11/20 07:37:24;;;;;;;;;;;;;;;;;;5063699;28;19929;-58
2022/11/20 07:39:50;;;;;;;;;;;;;;;;;;5065112;28;19931;-57
2022/11/20 07:42:16;;;;;;;;;;;;;;;;;;5063180;28;20003;-58
2022/11/20 07:44:42;;;;;;;;;;;;;;;;;;5064144;28;19927;-57
2022/11/20 07:47:08;;;;;;;;;;;;;;;;;;5064377;28;19920;-57
2022/11/20 07:49:34;;;;;;;;;;;;;;;;;;5063278;28;20422;-57
2022/11/20 07:51:59;;;;;;;;;;;;;;;;;;5064441;28;20126;-56
2022/11/20 07:54:25;;;;;;;;;;;;;;;;;;5064241;28;20379;-56
2022/11/20 07:56:51;;;;;;;;;;;;;;;;;;5064780;28;19931;-57
2022/11/20 07:59:17;;;;;;;;;;;;;;;;;;5063656;28;19920;-56
2022/11/20 08:01:43;;;;;;;;;;;;;;;;;;5062877;28;19920;-57
2022/11/20 08:04:09;;;;;;;;;;;;;;;;;;5065696;28;19932;-57
2022/11/20 08:06:35;;;;;;;;;;;;;;;;;;5066662;28;19920;-57
2022/11/20 08:09:01;;;;;;;3.30;3.00;;;;;;;;;;5068591;28;19993;-57
2022/11/20 08:14:11;;;;;;;3.22;2.72;;;;;;;;;;5067137;28;20123;-58
2022/11/20 08:16:38;;;;;;;3.80;3.30;;;;;;;;;;5066845;28;20539;-57
2022/11/20 08:19:04;;;;;;;3.63;3.15;;;;;;;;;;5069101;28;20080;-58
2022/11/20 08:21:30;;;;;;;2.85;2.65;;;;;;;;;;5067889;28;20079;-57
2022/11/20 08:23:57;;;;;;;3.08;2.78;;;;;;;;;;5064100;28;20159;-58
2022/11/20 08:26:23;;;;;;;3.08;2.72;;;;;;;;;;5070485;28;20545;-58
2022/11/20 08:28:49;;;;;;;3.17;2.88;;;;;;;;;;5071847;28;20101;-57
2022/11/20 08:31:15;;;;;;;3.15;2.85;;;;;;;;;;5074360;28;20051;-57
2022/11/20 08:33:41;;;;;;;4.18;3.67;;;;;;;;;;5070693;28;20036;-58
2022/11/20 08:36:08;;;;;;;4.03;3.47;;;;;;;;;;5074713;28;20067;-58
2022/11/20 08:38:34;;;;;;;3.97;3.53;;;;;;;;;;5075304;28;20082;-57
2022/11/20 08:43:45;;;;;;;5.05;3.70;;;;;;;;;;5071108;28;20076;-58
2022/11/20 08:46:11;;;;;;;4.00;3.33;;;;;;;;;;5069563;28;20505;-58
2022/11/20 08:48:37;;;;;;;3.72;3.25;;;;;;;;;;5068474;28;20032;-53
2022/11/20 08:51:03;;;;;;;3.75;3.33;;;;;;;;;;5068915;28;20209;-56
2022/11/20 08:53:29;;;;;;;4.05;3.40;;;;;;;;;;5068286;28;20055;-57
2022/11/20 08:55:57;;;;;;;5.50;4.32;;;;;;;;;;5067470;28;20070;-57
2022/11/20 08:58:23;;;;;;;4.82;4.30;;;;;;;;;;5068213;28;20076;-59
2022/11/20 09:00:49;;;;;;;6.60;4.88;;;;;;;;;;5069705;28;20102;-58
2022/11/20 09:03:15;;;;;;;6.40;5.47;;;;;;;;;;5070035;28;20047;-58
2022/11/20 09:05:42;;;;;;;7.13;5.43;;;;;;;;;;5076686;28;20071;-58
2022/11/20 09:08:08;;;;;;;5.10;4.60;;;;;;;;;;5068404;28;20048;-58
2022/11/20 09:10:34;;;;;;;6.68;5.25;;;;;;;;;;5070648;28;20048;-58
2022/11/20 09:13:01;;;;;;;5.25;4.68;;;;;;;;;;5068141;28;20051;-58
2022/11/20 09:15:27;;;;;;;6.72;4.90;;;;;;;;;;5061814;28;20044;-57
2022/11/20 09:17:54;;;;;;;5.43;4.75;;;;;;;;;;5066738;28;20097;-58
2022/11/20 09:20:20;;;;;;;5.38;4.03;;;;;;;;;;5068291;28;20454;-58
2022/11/20 09:22:46;;;;;;;5.25;4.50;;;;;;;;;;5065331;28;20070;-58
2022/11/20 09:25:12;;;;;;;4.85;4.30;;;;;;;;;;5065469;28;20044;-58
2022/11/20 09:27:38;;;;;;;5.57;4.80;;;;;;;;;;5066420;28;20032;-58
2022/11/20 09:30:05;;;;;;;6.00;5.10;;;;;;;;;;5066399;28;20051;-58
2022/11/20 09:32:31;;;;;;;6.72;5.32;;;;;;;;;;5065847;28;20067;-58
2022/11/20 09:34:57;;;;;;;5.43;4.18;;;;;;;;;;5066093;28;20044;-58
2022/11/20 09:37:23;;;;;;;5.80;4.47;;;;;;;;;;5064452;28;20036;-58
2022/11/20 09:39:49;;;;;;;5.40;4.60;;;;;;;;;;5068343;28;20479;-58
2022/11/20 09:42:15;;;;;;;5.60;4.88;;;;;;;;;;5064978;28;20479;-58
2022/11/20 09:44:47;;;;;;;6.03;5.43;;;;;;;;;;5064881;28;20052;-58
2022/11/20 09:47:25;;;;;;;7.35;5.80;;;;;;;;;;5065225;28;20048;-59
2022/11/20 09:49:56;;;;;;;8.07;6.15;;;;;;;;;;5065299;28;20045;-59
2022/11/20 09:52:41;;;;;;;6.90;6.03;;;;;;;;;;5065162;28;20072;-58
2022/11/20 09:55:09;;;;;;;7.15;5.57;;;;;;;;;;5064747;28;20572;-59
2022/11/20 09:57:41;;;;;;;7.95;6.40;;;;;;;;;;5064958;28;20036;-59
2022/11/20 10:00:11;;;;;;;7.38;5.80;;;;;;;;;;5061483;28;20036;-59
2022/11/20 10:02:40;;;;;;;9.05;6.13;;;;;;;;;;5063697;28;20044;-59
2022/11/20 10:05:09;;;;;;;8.55;6.68;;;;;;;;;;5071644;28;20077;-58
2022/11/20 10:07:42;;;;;;;8.35;6.50;;;;;;;;;;5064399;28;20530;-59
2022/11/20 10:10:19;;;;;;;9.95;6.78;;;;;;;;;;5061996;28;20131;-58
2022/11/20 10:12:57;;;;;;;7.18;5.88;;;;;;;;;;5062575;28;20048;-59
2022/11/20 10:15:45;;;;;;;7.13;6.43;;;;;;;;;;5060955;28;20048;-59
2022/11/20 10:18:22;;;;;;;9.68;6.70;;;;;;;;;;5069842;28;20138;-58
2022/11/20 10:20:57;;;;;;;9.02;6.03;;;;;;;;;;5068866;28;20039;-59
2022/11/20 10:23:42;;;;;;;6.35;5.30;;;;;;;;;;5064616;28;20507;-59
2022/11/20 10:26:22;;;;;;;6.00;5.30;;;;;;;;;;5058209;28;20040;-59
2022/11/20 10:29:07;;;;;;;6.22;5.40;;;;;;;;;;5063825;28;20041;-58
2022/11/20 10:31:48;;;;;;;6.30;5.32;;;;;;;;;;5065058;28;20049;-58
2022/11/20 10:34:53;;;;;;;6.88;5.50;;;;;;;;;;5064405;28;20418;-58
2022/11/20 10:37:22;;;;;;;5.88;4.90;;;;;;;;;;5020224;28;20045;-58
2022/11/20 10:39:55;;;;;;;7.88;6.07;;;;;;;;;;5020524;28;20075;-58
2022/11/20 10:42:30;;;;;;;6.78;5.45;;;;;;;;;;5044939;28;20053;-57
2022/11/20 10:45:02;;;;;;;6.00;5.15;;;;;;;;;;5065341;28;20067;-57
2022/11/20 10:47:30;;;;;;;7.53;6.30;;;;;;;;;;5064276;28;20071;-58
2022/11/20 10:49:58;;;;;;;8.77;6.40;;;;;;;;;;5065044;28;20044;-58
2022/11/20 10:52:33;;;;;;;7.78;6.57;;;;;;;;;;5066893;28;20494;-58
2022/11/20 10:55:11;;;;;;;7.93;5.93;;;;;;;;;;5068002;28;20402;-58
2022/11/20 10:57:55;;;;;;;6.35;5.63;;;;;;;;;;5065731;28;20048;-58
2022/11/20 11:00:21;;;;;;;8.25;6.22;;;;;;;;;;5064753;28;20049;-58
2022/11/20 11:02:49;;;;;;;7.63;5.97;;;;;;;;;;5064735;28;20055;-58
2022/11/20 11:05:23;;;;;;;6.93;5.72;;;;;;;;;;5064674;28;20053;-58
2022/11/20 11:07:50;;;;;;;6.70;5.30;;;;;;;;;;5062477;28;20110;-58
2022/11/20 11:10:24;;;;;;;6.60;5.43;;;;;;;;;;5063562;28;20083;-58
2022/11/20 11:12:50;;;;;;;5.70;5.07;;;;;;;;;;5060441;28;20040;-58
2022/11/20 11:15:31;;;;;;;5.47;4.88;;;;;;;;;;5063340;28;20044;-58
2022/11/20 11:17:57;;;;;;;5.53;4.95;;;;;;;;;;5064863;28;20319;-59
2022/11/20 11:20:24;;;;;;;5.07;3.92;;;;;;;;;;5065514;28;20048;-58
2022/11/20 11:22:52;;;;;;;5.10;4.32;;;;;;;;;;5063989;28;20048;-59
2022/11/20 11:25:21;;;;;;;5.57;4.72;;;;;;;;;;5064178;28;20048;-58
2022/11/20 11:27:48;;;;;;;7.13;6.40;;;;;;;;;;5070452;28;20048;-58
2022/11/20 11:30:15;;;;;;;6.68;5.65;;;;;;;;;;5066814;28;20053;-58
2022/11/20 11:32:41;;;;;;;8.80;6.53;;;;;;;;;;5074359;28;20418;-58
2022/11/20 11:35:18;;;;;;;6.20;5.40;;;;;;;;;;5073628;28;20109;-58
2022/11/20 11:37:46;;;;;;;5.30;4.68;;;;;;;;;;5063210;28;20040;-59
2022/11/20 11:40:13;;;;;;;6.10;5.45;;;;;;;;;;5066925;28;20407;-59
2022/11/20 11:45:04;;;;;;;8.15;6.30;;;;;;;;;;5063968;28;20040;-58
2022/11/20 11:45:55;;;;;;;6.32;5.13;;;;;;;;;;5061745;28;20041;-58
2022/11/20 11:48:21;;;;;;;6.60;5.47;;;;;;;;;;5064142;28;20497;-58
2022/11/20 11:50:51;;;;;;;5.68;5.07;;;;;;;;;;5063971;28;20090;-58
2022/11/20 11:53:21;;;;;;;5.85;5.05;;;;;;;;;;5064085;28;20131;-58
2022/11/20 11:55:50;;;;;;;4.72;4.30;;;;;;;;;;5064535;28;20487;-58
2022/11/20 11:58:19;;;;;;;6.10;5.32;;;;;;;;;;5063698;28;20044;-58
2022/11/20 12:00:52;;;;;;;7.38;5.65;;;;;;;;;;5063829;28;20048;-58
2022/11/20 12:03:35;;;;;;;6.38;4.75;;;;;;;;;;5060698;28;20079;-58
2022/11/20 12:06:06;;;;;;;7.40;4.57;;;;;;;;;;5063477;28;20542;-58
2022/11/20 12:08:39;;;;;;;6.22;5.13;;;;;;;;;;5064029;28;20046;-58
2022/11/20 12:11:23;;;;;;;4.70;4.25;;;;;;;;;;5063902;28;20920;-58
2022/11/20 12:13:55;;;;;;;5.35;4.40;;;;;;;;;;5059210;28;20040;-58
2022/11/20 12:16:22;;;;;;;4.28;3.67;;;;;;;;;;5063716;28;20047;-58
2022/11/20 12:18:51;;;;;;;4.63;3.75;;;;;;;;;;5063992;28;20045;-59
2022/11/20 12:21:24;;;;;;;4.18;3.67;;;;;;;;;;5063470;28;20131;-58
2022/11/20 12:24:07;;;;;;;3.95;3.53;;;;;;;;;;5062473;28;20249;-59
2022/11/20 12:26:51;;;;;;;4.18;3.40;;;;;;;;;;5061860;28;20049;-58
2022/11/20 12:29:22;;;;;;;3.97;3.50;;;;;;;;;;5060383;28;20045;-59
2022/11/20 12:31:51;;;;;;;3.78;2.78;;;;;;;;;;5064730;28;20037;-59
2022/11/20 12:34:28;;;;;;;4.47;3.40;;;;;;;;;;5063137;28;20056;-59
2022/11/20 12:37:01;;;;;;;3.20;2.85;;;;;;;;;;5062908;28;20052;-59
2022/11/20 12:39:41;;;;;;;4.43;3.65;;;;;;;;;;5062905;28;20040;-58
2022/11/20 12:45:27;;;;;;;3.05;2.70;;;;;;;;;;5062505;28;20114;-59
2022/11/20 12:48:02;;;;;;;2.85;2.45;;;;;;;;;;5039059;28;20515;-59
2022/11/20 12:50:35;;;;;;;2.42;2.22;;;;;;;;;;5071204;28;20111;-59
2022/11/20 12:53:25;;;;;;;2.95;2.50;;;;;;;;;;5066719;28;20407;-59
2022/11/20 12:55:51;;;;;;;2.33;2.13;;;;;;;;;;5067707;28;20036;-59
2022/11/20 12:58:28;;;;;;;3.08;2.78;;;;;;;;;;5067229;28;20051;-58
2022/11/20 13:00:57;;;;;;;2.63;2.42;;;;;;;;;;5060295;28;20040;-60
2022/11/20 13:03:32;;;;;;;2.35;2.15;;;;;;;;;;5066155;28;20045;-58
2022/11/20 13:06:17;;;;;;;2.53;2.33;;;;;;;;;;5069156;28;20050;-58
2022/11/20 13:08:49;;;;;;;2.38;2.17;;;;;;;;;;5062736;28;20060;-58
2022/11/20 13:11:15;;;;;;;;;;;;;;;;;;5067304;28;20056;-59
2022/11/20 13:14:00;;;;;;;1.92;1.83;;;;;;;;;;5066928;28;19928;-59
2022/11/20 13:16:44;;;;;;;2.40;2.08;;;;;;;;;;5063466;28;20045;-59
2022/11/20 13:19:12;;;;;;;3.10;1.92;;;;;;;;;;5062686;28;20134;-59
2022/11/20 13:21:39;;;;;;;2.30;2.10;;;;;;;;;;5065374;28;20557;-59
2022/11/20 13:24:26;;;;;;;2.67;2.10;;;;;;;;;;5065486;28;20055;-59
2022/11/20 13:27:11;;;;;;;2.25;2.03;;;;;;;;;;5064337;28;20051;-58
2022/11/20 13:29:37;;;;;;;2.95;2.50;;;;;;;;;;5064722;28;20044;-58
2022/11/20 13:32:05;;;;;;;2.40;2.20;;;;;;;;;;5068382;28;20045;-59
2022/11/20 13:34:31;;;;;;;3.47;2.45;;;;;;;;;;5064640;28;20442;-61
2022/11/20 13:37:00;;;;;;;2.22;2.03;;;;;;;;;;5065791;28;20041;-59
2022/11/20 13:39:44;;;;;;;3.28;2.97;;;;;;;;;;5066078;28;20106;-58
2022/11/20 13:42:14;;;;;;;2.90;2.40;;;;;;;;;;5066106;28;20055;-59
2022/11/20 13:44:43;;;;;;;2.25;1.92;;;;;;;;;;5098257;28;20099;-59
2022/11/20 13:47:25;;;;;;;2.90;2.50;;;;;;;;;;5070708;28;20040;-58
2022/11/20 13:49:54;;;;;;;2.50;2.30;;;;;;;;;;5062836;28;20036;-58
2022/11/20 13:52:39;;;;;;;3.58;2.78;;;;;;;;;;5062990;28;20052;-59
2022/11/20 13:55:23;;;;;;;3.67;3.38;;;;;;;;;;5066381;28;20471;-58
2022/11/20 13:58:04;;;;;;;3.60;3.10;;;;;;;;;;5058750;28;20123;-58
2022/11/20 14:00:30;;;;;;;2.97;2.65;;;;;;;;;;5066030;28;20052;-59
2022/11/20 14:03:01;;;;;;;2.78;2.58;;;;;;;;;;5062738;28;20710;-59
2022/11/20 14:05:27;;;;;;;2.60;2.40;;;;;;;;;;5062722;28;20044;-58
2022/11/20 14:07:54;;;;;;;2.90;2.00;;;;;;;;;;5066050;28;20072;-58
2022/11/20 14:10:22;;;;;;;2.17;1.98;;;;;;;;;;5065169;28;20503;-58
2022/11/20 14:12:48;;;;;;;3.53;2.50;;;;;;;;;;5066500;28;20044;-58
2022/11/20 14:15:28;;;;;;;2.25;2.05;;;;;;;;;;5065585;28;20477;-58
2022/11/20 14:17:54;;;;;;;1.77;1.55;;;;;;;;;;5064939;28;20119;-58
2022/11/20 14:20:25;;;;;;;2.75;2.30;;;;;;;;;;5064819;28;20059;-58
2022/11/20 14:22:51;;;;;;;2.33;2.10;;;;;;;;;;5096445;28;20269;-58
2022/11/20 14:25:17;;;;;;;2.65;2.45;;;;;;;;;;5064974;28;20045;-58
2022/11/20 14:27:45;;;;;;;4.22;3.70;;;;;;;;;;5065949;28;20044;-59
2022/11/20 14:30:37;;;;;;;3.70;3.30;;;;;;;;;;5065418;28;20534;-58
2022/11/20 14:33:04;;;;;;;5.03;3.33;;;;;;;;;;5058623;28;20391;-60
2022/11/20 14:35:31;;;;;;;3.42;3.03;;;;;;;;;;5066612;28;20044;-59
2022/11/20 14:37:57;;;;;;;3.70;3.03;;;;;;;;;;5064316;28;20049;-59
2022/11/20 14:40:25;;;;;;;3.90;3.58;;;;;;;;;;5066757;28;20051;-59
2022/11/20 14:42:51;;;;;;;3.10;2.80;;;;;;;;;;5065289;28;20111;-59
2022/11/20 14:45:17;;;;;;;3.25;2.92;;;;;;;;;;5065015;28;20148;-59
2022/11/20 14:47:43;;;;;;;3.53;3.20;;;;;;;;;;5058394;28;20041;-59
2022/11/20 14:50:26;;;;;;;3.70;3.38;;;;;;;;;;5065103;28;20048;-59
2022/11/20 14:52:59;;;;;;;3.20;2.65;;;;;;;;;;5062344;28;20566;-59
2022/11/20 14:55:30;;;;;;;3.00;2.75;;;;;;;;;;5063301;28;20084;-59
2022/11/20 14:57:58;;;;;;;2.92;2.63;;;;;;;;;;5065079;28;20055;-59
2022/11/20 15:00:24;;;;;;;4.03;3.20;;;;;;;;;;5063897;28;20521;-59
2022/11/20 15:02:51;;;;;;;4.53;3.85;;;;;;;;;;5065588;28;20127;-59
2022/11/20 15:05:18;;;;;;;3.97;3.63;;;;;;;;;;5065195;28;20036;-59
2022/11/20 15:07:46;;;;;;;3.90;3.50;;;;;;;;;;5064389;28;20479;-60
2022/11/20 15:10:25;;;;;;;3.83;3.20;;;;;;;;;;5064560;28;20576;-59
2022/11/20 15:12:56;;;;;;;3.65;3.25;;;;;;;;;;5062443;28;20052;-59
2022/11/20 15:15:22;;;;;;;3.75;3.33;;;;;;;;;;5062527;28;20423;-58
2022/11/20 15:17:48;;;;;;;4.20;3.67;;;;;;;;;;5065190;28;20037;-59
2022/11/20 15:20:16;;;;;;;5.13;3.92;;;;;;;;;;5064631;28;20051;-59
2022/11/20 15:22:42;;;;;;;5.15;3.78;;;;;;;;;;5063966;28;20127;-59
2022/11/20 15:25:15;;;;;;;5.18;3.80;;;;;;;;;;5064728;28;20633;-59
2022/11/20 15:27:41;;;;;;;3.90;3.47;;;;;;;;;;5064456;28;20497;-59
2022/11/20 15:30:17;;;;;;;5.90;4.47;;;;;;;;;;5064967;28;20423;-59
2022/11/20 15:32:44;;;;;;;5.55;4.55;;;;;;;;;;5064805;28;20079;-59
2022/11/20 15:35:10;;;;;;;5.57;4.45;;;;;;;;;;5063237;28;20609;-59
2022/11/20 15:37:37;;;;;;;7.05;4.82;;;;;;;;;;5067540;28;20407;-59
2022/11/20 15:40:03;;;;;;;6.07;4.82;;;;;;;;;;5065731;28;20483;-59